Time;durP1;ratioP1;P1;durP2;ratioP2;P2;SDS_P1;SDS_P2;PMS_P1;PMS_P2;Temp;Humidity;BMP_temperature;BMP_pressure;BME280_temperature;BME280_humidity;BME280_pressure;Samples;Min_cycle;Max_cycle;Signal;HPM_P1;HPM_P2
2022/08/13 00:02:34;;;;;;;;;16.75;12.75;;;;;26.09;31.53;101020.16;5038577;28;45735;-84
2022/08/13 00:04:59;;;;;;;;;12.25;12.25;;;;;26.02;32.21;101021.69;5047966;28;45539;-84
2022/08/13 00:07:30;;;;;;;;;12.00;10.50;;;;;25.97;31.64;101018.59;5076772;28;45252;-84
2022/08/13 00:09:56;;;;;;;;;13.50;12.00;;;;;25.90;31.81;101018.28;5075965;28;46266;-84
2022/08/13 00:15:16;;;;;;;;;12.50;12.00;;;;;25.85;32.12;101024.03;5076406;28;45289;-84
2022/08/13 00:17:43;;;;;;;;;14.00;13.00;;;;;25.78;32.12;101022.88;5058426;28;45369;-84
2022/08/13 00:20:10;;;;;;;;;12.75;11.75;;;;;25.75;32.26;101023.16;5076094;28;46281;-84
2022/08/13 00:22:35;;;;;;;;;12.00;11.00;;;;;25.73;32.45;101019.78;5057991;28;46051;-84
2022/08/13 00:25:05;;;;;;;;;12.75;12.00;;;;;25.74;32.52;101018.78;5057839;28;45284;-84
2022/08/13 00:27:30;;;;;;;;;13.00;11.75;;;;;25.72;32.39;101018.06;5075854;27;45623;-84
2022/08/13 00:29:56;;;;;;;;;10.75;10.75;;;;;25.72;31.33;101019.91;5056662;28;74316;-84
2022/08/13 00:32:26;;;;;;;;;10.50;10.50;;;;;25.73;31.57;101018.94;5062783;28;45384;-85
2022/08/13 00:34:52;;;;;;;;;13.25;11.00;;;;;25.74;31.30;101020.59;5055906;28;45336;-84
2022/08/13 00:37:18;;;;;;;;;12.00;11.00;;;;;25.73;31.91;101017.13;5055475;28;50433;-84
2022/08/13 00:39:43;;;;;;;;;12.50;11.00;;;;;25.73;31.57;101018.94;5055150;28;47365;-84
2022/08/13 00:42:08;;;;;;;;;10.00;10.00;;;;;25.71;31.82;101024.41;5036585;28;73218;-84
2022/08/13 00:44:34;;;;;;;;;11.00;9.75;;;;;25.71;31.19;101024.41;5037827;28;45445;-84
2022/08/13 00:49:47;;;;;;;;;9.75;9.50;;;;;25.69;31.85;101023.69;5055443;28;45357;-84
2022/08/13 00:52:12;;;;;;;;;10.25;9.75;;;;;25.66;32.00;101037.28;5055170;28;45904;-84
2022/08/13 00:54:40;;;;;;;;;13.25;10.50;;;;;25.61;31.75;101031.50;5038361;28;45412;-84
2022/08/13 00:57:07;;;;;;;;;9.25;8.00;;;;;25.59;31.91;101028.13;5059270;28;45252;-84
2022/08/13 00:59:35;;;;;;;;;12.50;11.00;;;;;25.56;31.60;101023.94;5041087;28;45534;-85
2022/08/13 01:02:01;;;;;;;;;10.00;9.50;;;;;25.56;31.80;101031.09;5059068;28;45927;-84
2022/08/13 01:04:29;;;;;;;;;10.50;9.00;;;;;25.53;31.89;101026.84;5029600;28;45573;-84
2022/08/13 01:06:58;;;;;;;;;12.00;9.50;;;;;25.52;31.07;101027.84;5061302;28;45261;-86
2022/08/13 01:09:29;;;;;;;;;9.25;7.25;;;;;25.53;31.35;101026.84;5061150;28;45828;-85
2022/08/13 01:11:58;;;;;;;;;8.75;8.75;;;;;25.51;31.93;101028.81;5079219;28;45415;-84
2022/08/13 01:14:27;;;;;;;;;11.25;8.00;;;;;25.51;31.23;101031.47;5079304;28;45336;-84
2022/08/13 01:16:53;;;;;;;;;7.75;7.75;;;;;25.49;31.06;101025.44;5079135;28;45402;-84
2022/08/13 01:19:19;;;;;;;;;8.50;8.25;;;;;25.49;31.19;101033.44;5060911;28;46329;-84
2022/08/13 01:21:49;;;;;;;;;10.00;8.00;;;;;25.48;31.60;101027.28;5078417;28;45857;-84
2022/08/13 01:24:14;;;;;;;;;8.75;7.75;;;;;25.44;31.26;101027.66;5061160;28;45430;-84
2022/08/13 01:26:42;;;;;;;;;9.25;8.75;;;;;25.43;30.40;101023.34;5078675;27;45398;-84
2022/08/13 01:29:08;;;;;;;;;7.50;7.00;;;;;25.42;30.32;101024.28;5060966;28;46187;-84
2022/08/13 01:31:35;;;;;;;;;7.25;6.50;;;;;25.42;30.82;101027.78;5054159;28;45305;-83
2022/08/13 01:34:03;;;;;;;;;8.00;8.00;;;;;25.41;30.56;101020.78;5056984;28;56471;-84
2022/08/13 01:36:29;;;;;;;;;8.75;7.00;;;;;25.39;31.33;101027.22;5058222;28;45577;-84
2022/08/13 01:38:57;;;;;;;;;7.75;6.25;;;;;25.37;30.65;101026.50;5058477;28;46154;-84
2022/08/13 01:41:28;;;;;;;;;9.00;7.75;;;;;25.36;30.43;101028.34;5058265;28;45383;-84
2022/08/13 01:44:00;;;;;;;;;9.25;8.50;;;;;25.34;30.05;101027.63;5040928;28;45496;-84
2022/08/13 01:46:25;;;;;;;;;9.75;7.25;;;;;25.33;30.68;101028.59;5041300;28;45496;-84
2022/08/13 01:51:36;;;;;;;;;9.50;9.00;;;;;25.30;30.81;101029.72;5058017;28;45828;-84
2022/08/13 01:54:02;;;;;;;;;7.00;7.00;;;;;25.26;30.58;101022.97;5058355;28;45438;-83
2022/08/13 01:56:31;;;;;;;;;6.00;5.00;;;;;25.25;30.43;101036.41;5058276;28;45197;-84
2022/08/13 01:59:01;;;;;;;;;12.00;8.50;;;;;25.23;29.91;101023.22;5058132;28;45588;-84
2022/08/13 02:01:31;;;;;;;;;7.75;7.50;;;;;25.23;30.71;101028.56;5058041;28;45768;-84
2022/08/13 02:03:57;;;;;;;;;9.00;9.00;;;;;25.21;30.42;101021.66;5059203;28;45421;-83
2022/08/13 02:06:26;;;;;;;;;8.75;8.00;;;;;25.18;30.55;101028.06;5059076;28;45427;-84
2022/08/13 02:08:59;;;;;;;;;8.75;7.25;;;;;25.17;30.37;101033.56;5078278;28;46467;-84
2022/08/13 02:11:26;;;;;;;;;10.50;8.25;;;;;25.14;30.88;101031.97;5078157;28;45275;-84
2022/08/13 02:13:53;;;;;;;;;10.75;9.00;;;;;25.12;29.99;101032.09;5078268;28;45431;-84
2022/08/13 02:16:19;;;;;;;;;9.25;8.75;;;;;25.10;30.49;101027.91;5060145;28;45479;-84
2022/08/13 02:18:44;;;;;;;;;8.50;7.00;;;;;25.06;30.66;101032.66;5059795;28;45447;-84
2022/08/13 02:21:11;;;;;;;;;12.00;9.75;;;;;25.06;30.30;101034.47;5077213;28;57382;-83
2022/08/13 02:23:36;;;;;;;;;11.50;8.50;;;;;25.02;31.71;101039.22;5078182;28;45339;-84
2022/08/13 02:26:05;;;;;;;;;14.00;11.00;;;;;24.98;30.74;101035.13;5059815;28;45427;-84
2022/08/13 02:28:32;;;;;;;;;12.00;9.50;;;;;24.95;31.18;101034.53;5074548;28;45389;-84
2022/08/13 02:30:57;;;;;;;;;14.50;9.75;;;;;24.91;31.78;101039.28;5077750;27;45791;-84
2022/08/13 02:33:24;;;;;;;;;9.50;8.00;;;;;24.87;32.10;101036.03;5078164;27;45441;-84
2022/08/13 02:35:51;;;;;;;;;10.25;9.00;;;;;24.82;31.55;101045.38;5078063;28;45381;-84
2022/08/13 02:38:24;;;;;;;;;11.00;7.75;;;;;24.78;31.85;101043.97;5077682;27;45423;-84
2022/08/13 02:43:34;;;;;;;;;12.50;9.00;;;;;24.67;32.49;101032.38;5078155;28;45455;-84
2022/08/13 02:46:04;;;;;;;;;11.50;9.50;;;;;24.62;32.70;101037.25;5110821;27;45387;-83
2022/08/13 02:48:31;;;;;;;;;8.50;8.50;;;;;24.55;33.05;101038.72;5108841;27;46403;-84
2022/08/13 02:50:59;;;;;;;;;11.00;10.00;;;;;24.48;33.57;101040.19;5110089;27;45808;-84
2022/08/13 02:53:25;;;;;;;;;10.25;9.00;;;;;24.42;33.06;101033.53;5077704;28;45346;-84
2022/08/13 02:55:51;;;;;;;;;12.00;9.00;;;;;24.37;34.19;101032.25;5077638;28;45352;-84
2022/08/13 02:58:17;;;;;;;;;10.00;10.00;;;;;24.31;33.21;101030.94;5110273;27;46252;-84
2022/08/13 03:00:48;;;;;;;;;15.25;9.75;;;;;24.23;33.10;101031.56;5110817;27;45865;-84
2022/08/13 03:03:14;;;;;;;;;10.25;9.00;;;;;24.18;34.08;101039.06;5076059;28;45403;-84
2022/08/13 03:05:41;;;;;;;;;11.00;9.25;;;;;24.12;34.12;101043.06;5075913;27;45378;-84
2022/08/13 03:08:07;;;;;;;;;11.50;9.50;;;;;24.08;34.33;101040.81;5076124;28;46284;-84
2022/08/13 03:10:32;;;;;;;;;14.00;9.50;;;;;24.02;34.08;101039.50;5075892;28;45420;-84
2022/08/13 03:13:15;;;;;;;;;14.50;10.75;;;;;23.96;33.93;101034.69;5077417;28;45389;-85
2022/08/13 03:15:43;;;;;;;;;11.75;10.75;;;;;23.92;34.17;101034.09;5076180;28;45415;-84
2022/08/13 03:18:09;;;;;;;;;12.00;8.50;;;;;23.88;34.56;101027.31;5074774;28;45628;-84
2022/08/13 03:20:35;;;;;;;;;9.00;9.00;;;;;23.84;35.13;101033.00;5077248;27;45278;-85
2022/08/13 03:23:01;;;;;;;;;8.25;7.00;;;;;23.81;34.60;101027.91;5077192;28;45247;-85
2022/08/13 03:25:29;;;;;;;;;11.00;10.50;;;;;23.80;34.53;101027.09;5077319;27;45513;-85
2022/08/13 03:27:55;;;;;;;;;8.00;8.00;;;;;23.78;34.71;101016.53;5075605;28;47494;-85
2022/08/13 03:30:22;;;;;;;;;9.50;8.50;;;;;23.76;35.06;101025.63;5076809;28;45354;-84
2022/08/13 03:32:49;;;;;;;;;11.00;8.00;;;;;23.73;34.62;101029.34;5075557;28;45304;-84
2022/08/13 03:35:22;;;;;;;;;9.25;7.00;;;;;23.70;35.22;101028.75;5076929;28;45344;-84
2022/08/13 03:37:53;;;;;;;;;8.00;8.00;;;;;23.66;34.76;101036.16;5077017;28;45489;-84
2022/08/13 03:40:23;;;;;;;;;7.50;7.50;;;;;23.67;35.08;101032.50;5075410;28;45901;-84
2022/08/13 03:42:50;;;;;;;;;8.00;6.25;;;;;23.65;35.25;101031.78;5076978;27;45322;-84
2022/08/13 03:45:16;;;;;;;;;9.00;7.75;;;;;23.65;35.09;101034.44;5076873;28;45354;-84
2022/08/13 03:47:42;;;;;;;;;6.75;6.75;;;;;23.63;34.95;101033.72;5076357;28;45775;-84
2022/08/13 03:50:09;;;;;;;;;7.25;7.00;;;;;23.62;35.26;101029.34;5076617;28;45355;-84
2022/08/13 03:52:36;;;;;;;;;6.00;6.00;;;;;23.60;35.54;101030.47;5076810;27;45378;-84
2022/08/13 03:55:05;;;;;;;;;5.00;5.00;;;;;23.59;35.40;101037.59;5076518;28;45601;-84
2022/08/13 03:57:30;;;;;;;;;9.25;7.75;;;;;23.56;35.19;101037.81;5076414;28;46426;-84
2022/08/13 03:59:57;;;;;;;;;8.25;7.00;;;;;23.54;35.03;101037.94;5076464;28;45310;-84
2022/08/13 04:02:22;;;;;;;;;4.00;3.25;;;;;23.53;35.08;101043.38;5108861;27;45378;-84
2022/08/13 04:04:48;;;;;;;;;7.25;7.00;;;;;23.52;34.78;101039.88;5074289;27;68200;-84
2022/08/13 04:07:16;;;;;;;;;6.75;5.25;;;;;23.51;35.79;101032.88;5075116;28;45389;-85
2022/08/13 04:09:42;;;;;;;;;5.25;5.25;;;;;23.50;35.38;101033.00;5076229;27;45910;-84
2022/08/13 04:12:12;;;;;;;;;7.50;5.00;;;;;23.45;35.45;101028.03;5058463;28;45349;-84
2022/08/13 04:14:43;;;;;;;;;5.25;5.25;;;;;23.43;35.70;101034.44;5075377;28;45369;-84
2022/08/13 04:17:13;;;;;;;;;6.75;6.25;;;;;23.41;34.78;101031.06;5074763;28;47295;-84
2022/08/13 04:19:41;;;;;;;;;6.25;6.00;;;;;23.39;34.29;101032.03;5076218;27;45526;-84
2022/08/13 04:22:10;;;;;;;;;7.00;7.00;;;;;23.42;34.18;101036.28;5076358;28;45433;-84
2022/08/13 04:24:36;;;;;;;;;6.00;6.00;;;;;23.44;33.85;101026.38;5075240;28;45427;-84
2022/08/13 04:27:05;;;;;;;;;9.00;6.75;;;;;23.46;34.65;101026.22;5057677;28;47341;-84
2022/08/13 04:29:30;;;;;;;;;8.00;6.25;;;;;23.48;33.90;101034.94;5075189;27;45476;-84
2022/08/13 04:31:59;;;;;;;;;6.50;6.00;;;;;23.46;33.88;101032.41;5074841;28;45398;-84
2022/08/13 04:34:28;;;;;;;;;7.50;7.00;;;;;23.46;34.37;101039.50;5074803;28;45596;-83
2022/08/13 04:36:55;;;;;;;;;6.00;6.00;;;;;23.44;35.07;101034.34;5108495;27;45382;-84
2022/08/13 04:39:21;;;;;;;;;6.00;6.00;;;;;23.43;34.77;101029.13;5074768;28;45374;-84
2022/08/13 04:41:47;;;;;;;;;9.25;5.00;;;;;23.41;34.61;101029.25;5075974;28;45822;-84
2022/08/13 04:44:12;;;;;;;;;5.75;5.75;;;;;23.41;33.97;101033.72;5108263;27;56765;-84
2022/08/13 04:46:38;;;;;;;;;8.50;6.75;;;;;23.41;35.06;101031.91;5075835;28;47271;-84
2022/08/13 04:49:04;;;;;;;;;7.25;7.25;;;;;23.41;35.43;101037.22;5074578;28;45304;-84
2022/08/13 04:51:32;;;;;;;;;6.00;6.00;;;;;23.39;34.98;101029.38;5057662;28;45391;-83
2022/08/13 04:53:57;;;;;;;;;8.00;8.00;;;;;23.38;35.71;101029.47;5108249;27;45567;-84
2022/08/13 04:56:23;;;;;;;;;6.25;6.00;;;;;23.37;35.56;101028.66;5074381;28;46261;-84
2022/08/13 04:58:48;;;;;;;;;8.75;7.00;;;;;23.36;34.70;101031.41;5074884;28;63641;-86
2022/08/13 05:01:13;;;;;;;;;7.25;6.75;;;;;23.34;34.85;101028.88;5108726;27;45392;-84
2022/08/13 05:03:41;;;;;;;;;9.25;8.00;;;;;23.35;34.80;101027.09;5091072;27;53336;-85
2022/08/13 05:06:11;;;;;;;;;6.50;6.50;;;;;23.35;35.00;101032.41;5108122;27;45437;-85
2022/08/13 05:08:38;;;;;;;;;10.25;7.25;;;;;23.34;34.49;101022.72;5074557;28;45876;-85
2022/08/13 05:11:07;;;;;;;;;8.00;7.25;;;;;23.34;35.79;101030.69;5075641;28;45326;-85
2022/08/13 05:13:37;;;;;;;;;7.75;7.75;;;;;23.32;34.35;101028.16;5074094;28;45414;-84
2022/08/13 05:16:04;;;;;;;;;9.00;7.75;;;;;23.31;36.00;101036.25;5075651;27;45340;-84
2022/08/13 05:18:31;;;;;;;;;7.00;6.75;;;;;23.26;35.90;101036.63;5075556;28;45420;-84
2022/08/13 05:20:59;;;;;;;;;7.75;7.75;;;;;23.25;35.80;101042.88;5075669;28;45338;-84
2022/08/13 05:23:25;;;;;;;;;7.75;6.50;;;;;23.26;34.38;101046.41;5074344;28;45406;-84
2022/08/13 05:25:52;;;;;;;;;9.25;7.75;;;;;23.28;35.21;101044.47;5074218;28;45401;-84
2022/08/13 05:28:18;;;;;;;;;8.75;6.75;;;;;23.29;34.08;101040.81;5074807;28;45841;-84
2022/08/13 05:30:46;;;;;;;;;8.25;7.00;;;;;23.30;35.53;101043.38;5074114;28;45291;-84
2022/08/13 05:33:18;;;;;;;;;9.50;6.50;;;;;23.32;34.00;101043.25;5055301;28;45425;-84
2022/08/13 05:35:46;;;;;;;;;6.25;6.00;;;;;23.35;34.56;101040.38;5055002;28;45421;-84
2022/08/13 05:38:11;;;;;;;;;7.50;5.00;;;;;23.36;35.15;101044.69;5087488;27;45397;-84
2022/08/13 05:40:39;;;;;;;;;5.50;5.00;;;;;23.36;34.59;101040.25;5054851;28;45344;-84
2022/08/13 05:43:13;;;;;;;;;6.00;6.00;;;;;23.37;34.20;101039.28;5057439;28;45284;-84
2022/08/13 05:45:39;;;;;;;;;7.25;6.00;;;;;23.39;33.91;101041.81;5090996;27;47059;-84
2022/08/13 05:48:05;;;;;;;;;7.00;6.25;;;;;23.41;34.19;101039.88;5090938;27;45374;-84
2022/08/13 05:50:33;;;;;;;;;7.00;6.50;;;;;23.42;33.88;101044.25;5058231;28;45347;-84
2022/08/13 05:53:09;;;;;;;;;6.00;5.50;;;;;23.45;33.46;101043.16;5090133;27;45459;-84
2022/08/13 05:55:38;;;;;;;;;6.00;6.00;;;;;23.45;33.23;101051.13;5058057;28;46581;-84
2022/08/13 05:58:07;;;;;;;;;8.75;7.00;;;;;23.44;33.08;101052.06;5057742;28;45334;-85
2022/08/13 06:03:27;;;;;;;;;5.50;5.50;;;;;23.49;32.95;101045.41;5057248;28;45423;-84
2022/08/13 06:05:59;;;;;;;;;5.75;5.75;;;;;23.51;33.81;101050.63;5075522;27;46985;-84
2022/08/13 06:08:29;;;;;;;;;8.75;6.00;;;;;23.51;33.01;101056.81;5078356;28;45470;-84
2022/08/13 06:10:59;;;;;;;;;7.75;7.50;;;;;23.50;32.67;101048.94;5077989;27;45304;-85
2022/08/13 06:13:25;;;;;;;;;5.00;5.00;;;;;23.51;33.08;101050.63;5077002;28;45491;-84
2022/08/13 06:16:01;;;;;;;;;5.25;5.25;;;;;23.51;32.82;101056.81;5076831;28;46319;-85
2022/08/13 06:18:29;;;;;;;;;6.00;5.75;;;;;23.55;33.13;101055.59;5076866;28;45914;-84
2022/08/13 06:20:55;;;;;;;;;5.75;5.75;;;;;23.56;33.27;101054.59;5078277;27;45434;-85
2022/08/13 06:23:22;;;;;;;;;7.75;6.00;;;;;23.58;34.29;101054.50;5077054;28;45364;-84
2022/08/13 06:25:51;;;;;;;;;5.75;4.75;;;;;23.60;33.09;101049.91;5076403;28;46161;-84
2022/08/13 06:28:19;;;;;;;;;4.50;4.25;;;;;23.63;33.52;101054.13;5076386;28;45797;-84
2022/08/13 06:30:45;;;;;;;;;6.25;4.75;;;;;23.67;33.57;101053.75;5077988;28;45441;-84
2022/08/13 06:33:13;;;;;;;;;6.75;6.00;;;;;23.68;33.41;101055.47;5076644;28;45399;-84
2022/08/13 06:35:38;;;;;;;;;5.50;5.50;;;;;23.70;33.25;101056.19;5077830;28;46208;-83
2022/08/13 06:38:10;;;;;;;;;7.00;5.75;;;;;23.74;32.71;101052.31;5077083;28;65941;-84
2022/08/13 06:40:37;;;;;;;;;5.75;5.25;;;;;23.78;32.95;101048.44;5076260;28;45395;-84
2022/08/13 06:43:05;;;;;;;;;4.25;4.25;;;;;23.83;32.84;101052.56;5110674;27;45375;-84
2022/08/13 06:45:30;;;;;;;;;5.00;5.00;;;;;23.88;33.17;101050.38;5076446;28;46489;-84
2022/08/13 06:47:58;;;;;;;;;6.75;6.00;;;;;23.91;33.57;101052.81;5093012;27;55355;-84
2022/08/13 06:50:23;;;;;;;;;5.25;5.25;;;;;23.91;32.54;101050.16;5110766;27;45282;-84
2022/08/13 06:52:48;;;;;;;;;6.75;5.75;;;;;23.92;32.88;101049.16;5077478;28;45435;-84
2022/08/13 06:55:15;;;;;;;;;7.00;6.00;;;;;23.94;32.83;101049.88;5109227;27;72797;-84
2022/08/13 06:57:40;;;;;;;;;6.75;6.00;;;;;23.98;33.06;101056.66;5093446;27;45351;-84
2022/08/13 07:00:10;;;;;;;;;7.25;7.00;;;;;24.03;32.69;101053.63;5110588;27;45329;-84
2022/08/13 07:02:37;;;;;;;;;5.25;5.25;;;;;24.04;32.58;101053.50;5077591;28;45516;-84
2022/08/13 07:05:04;;;;;;;;;5.75;5.75;;;;;24.08;33.39;101056.75;5059025;28;47423;-84
2022/08/13 07:07:31;;;;;;;;;5.50;5.50;;;;;24.10;32.60;101068.94;5076156;28;45762;-84
2022/08/13 07:09:56;;;;;;;;;6.50;5.50;;;;;24.14;32.58;101062.44;5075855;28;45455;-84
2022/08/13 07:12:22;;;;;;;;;5.25;4.75;;;;;24.19;32.32;101056.72;5076062;28;45503;-84
2022/08/13 07:14:47;;;;;;;;;5.00;5.00;;;;;24.27;32.29;101064.09;5075577;28;61066;-84
2022/08/13 07:17:13;;;;;;;;;6.00;6.00;;;;;24.34;32.78;101062.63;5075143;28;69310;-84
2022/08/13 07:19:42;;;;;;;;;6.75;5.00;;;;;24.41;32.41;101054.97;5076114;28;45427;-84
2022/08/13 07:22:10;;;;;;;;;5.25;5.00;;;;;24.47;31.86;101057.13;5077292;28;45273;-84
2022/08/13 07:24:37;;;;;;;;;7.00;6.00;;;;;24.51;32.30;101063.88;5075507;28;46689;-84
2022/08/13 07:27:07;;;;;;;;;6.00;5.00;;;;;24.54;31.82;101061.84;5075771;28;45732;-84
2022/08/13 07:29:39;;;;;;;;;5.75;4.50;;;;;24.60;32.39;101057.81;5077180;27;45350;-84
2022/08/13 07:32:07;;;;;;;;;6.00;6.00;;;;;24.68;31.73;101062.50;5075687;28;45446;-86
2022/08/13 07:34:35;;;;;;;;;5.25;5.00;;;;;24.75;31.64;101069.00;5076796;28;47243;-84
2022/08/13 07:37:03;;;;;;;;;5.25;5.00;;;;;24.82;31.67;101070.19;5075599;28;45971;-84
2022/08/13 07:39:30;;;;;;;;;5.00;5.00;;;;;24.90;31.59;101070.38;5075327;28;45406;-84
2022/08/13 07:41:56;;;;;;;;;6.75;6.75;;;;;24.99;31.47;101075.91;5109594;27;45318;-84
2022/08/13 07:44:22;;;;;;;;;5.50;4.75;;;;;25.05;31.00;101073.56;5075546;28;45406;-85
2022/08/13 07:46:49;;;;;;;;;6.50;5.00;;;;;25.12;31.83;101074.72;5076866;28;45787;-84
2022/08/13 07:49:16;;;;;;;;;5.50;5.50;;;;;25.19;31.15;101076.88;5109720;27;45533;-84
2022/08/13 07:51:42;;;;;;;;;5.00;5.00;;;;;25.25;31.12;101069.22;5076879;28;45386;-84
2022/08/13 07:54:09;;;;;;;;;6.00;6.00;;;;;25.36;30.81;101072.81;5109269;27;47260;-84
2022/08/13 07:56:35;;;;;;;;;8.25;6.00;;;;;25.43;31.35;101079.28;5076442;28;45753;-84
2022/08/13 07:59:12;;;;;;;;;6.50;6.00;;;;;25.50;30.81;101065.28;5075398;28;45337;-84
2022/08/13 08:01:51;;;;;;;;;5.50;5.25;;;;;25.56;30.96;101074.56;5076680;28;45450;-84
2022/08/13 08:04:17;;;;;;;;;6.25;5.75;;;;;25.65;30.46;101062.28;5074430;27;45347;-85
2022/08/13 08:06:47;;;;;;;;;6.00;6.00;;;;;25.74;30.37;101074.75;5076373;28;45311;-84
2022/08/13 08:09:22;;;;;;;;;6.00;6.00;;;;;25.81;30.41;101078.59;5076137;28;45380;-87
2022/08/13 08:14:33;;;;;;;;;6.00;6.00;;;;;25.95;30.50;101071.25;5075317;28;45723;-84
2022/08/13 08:16:59;;;;;;;;;6.75;5.00;;;;;26.03;29.75;101071.38;5076408;28;45323;-84
2022/08/13 08:19:28;;;;;;;;;5.25;5.25;;;;;26.10;30.28;101077.03;5075111;28;45359;-84
2022/08/13 08:21:56;;;;;;;;;6.75;5.25;;;;;26.17;29.88;101070.13;5076034;28;45331;-84
2022/08/13 08:24:23;;;;;;;;;8.75;6.00;;;;;26.25;29.54;101075.66;5074865;28;46639;-85
2022/08/13 08:26:51;;;;;;;;;4.25;4.25;;;;;26.34;29.80;101082.00;5076153;28;45363;-85
2022/08/13 08:29:16;;;;;;;;;5.00;4.50;;;;;26.42;29.64;101079.44;5058368;28;45403;-84
2022/08/13 08:31:44;;;;;;;;;5.75;5.75;;;;;26.51;29.73;101083.13;5067782;28;64757;-84
2022/08/13 08:34:12;;;;;;;;;5.00;5.00;;;;;26.60;29.05;101077.81;5055876;28;46277;-84
2022/08/13 08:36:41;;;;;;;;;5.00;5.00;;;;;26.70;28.93;101082.31;5055579;28;45761;-85
2022/08/13 08:44:38;;;;;;;;;8.00;5.50;;;;;26.94;28.78;101089.88;5040338;28;45730;-84
2022/08/13 08:47:04;;;;;;;;;5.00;5.00;;;;;27.00;28.65;101079.44;5055740;28;45286;-84
2022/08/13 08:49:40;;;;;;;;;;;;;;;;;;;;;
2022/08/13 08:52:07;;;;;;;;;5.00;5.00;;;;;27.17;28.34;101083.22;5035967;28;71155;-85
2022/08/13 08:54:32;;;;;;;;;5.00;5.00;;;;;27.25;28.04;101085.16;5037534;28;46693;-84
2022/08/13 08:56:59;;;;;;;;;5.00;5.00;;;;;27.31;28.10;101084.63;5037346;28;50365;-84
2022/08/13 08:59:32;;;;;;;;;6.00;5.25;;;;;27.39;28.11;101090.06;5021124;28;45331;-85
2022/08/13 09:01:57;;;;;;;;;5.00;5.00;;;;;27.49;27.67;101078.50;5037932;28;45504;-84
2022/08/13 09:04:28;;;;;;;;;4.00;4.00;;;;;27.58;27.08;101077.63;5042275;28;45938;-85
2022/08/13 09:06:58;;;;;;;;;7.25;5.00;;;;;27.67;27.38;101076.72;5057844;28;45998;-84
2022/08/13 09:09:25;;;;;;;;;6.00;4.25;;;;;27.75;27.63;101078.69;5057831;28;45312;-84
2022/08/13 09:11:55;;;;;;;;;4.00;4.00;;;;;27.84;27.24;101072.44;5075696;28;45328;-84
2022/08/13 09:14:26;;;;;;;;;4.25;3.25;;;;;27.94;27.13;101075.09;5057615;28;45522;-85
2022/08/13 09:16:53;;;;;;;;;6.75;5.00;;;;;28.02;27.14;101069.00;5078246;28;45744;-85
2022/08/13 09:19:26;;;;;;;;;7.00;4.75;;;;;28.13;26.97;101068.78;5061035;28;45363;-85
2022/08/13 09:21:51;;;;;;;;;3.50;3.00;;;;;28.25;27.24;101067.56;5062185;28;45293;-85
2022/08/13 09:24:17;;;;;;;;;6.00;4.00;;;;;28.35;26.75;101071.00;5059923;28;67666;-85
2022/08/13 09:26:48;;;;;;;;;6.25;5.25;;;;;28.45;26.99;101067.41;5060795;27;45380;-85
2022/08/13 09:29:15;;;;;;;;;4.25;4.25;;;;;28.57;26.55;101077.78;5061470;28;45506;-85
2022/08/13 09:31:43;;;;;;;;;7.75;6.00;;;;;28.67;26.27;101064.28;5053669;28;45443;-85
2022/08/13 09:34:11;;;;;;;;;5.00;5.00;;;;;28.76;26.49;101070.56;5058249;28;45734;-85
2022/08/13 09:36:37;;;;;;;;;4.25;3.00;;;;;28.84;26.32;101067.94;5058549;28;45364;-85
2022/08/13 09:39:06;;;;;;;;;4.00;4.00;;;;;28.92;26.02;101070.69;5057288;28;45372;-85
2022/08/13 09:41:40;;;;;;;;;4.50;4.00;;;;;29.00;25.79;101071.75;5058696;28;45300;-84
2022/08/13 09:44:05;;;;;;;;;6.25;4.25;;;;;29.04;25.69;101075.78;5040539;28;47618;-85
2022/08/13 09:46:35;;;;;;;;;5.25;4.75;;;;;29.11;26.78;101066.13;5040439;28;45357;-84
2022/08/13 09:49:03;;;;;;;;;4.50;4.00;;;;;29.19;25.98;101071.56;5058044;28;45346;-85
2022/08/13 09:51:31;;;;;;;;;4.00;4.00;;;;;29.30;25.36;101068.59;5040801;28;45466;-85
2022/08/13 09:53:57;;;;;;;;;5.00;4.00;;;;;29.35;25.23;101070.81;5058080;28;46260;-85
2022/08/13 09:56:25;;;;;;;;;4.00;3.75;;;;;29.43;25.07;101064.66;5057173;28;73748;-85
2022/08/13 09:58:54;;;;;;;;;3.00;3.00;;;;;29.53;25.15;101063.53;5058283;28;45367;-85
2022/08/13 10:01:22;;;;;;;;;4.00;4.00;;;;;29.65;25.00;101060.56;5058139;28;45378;-85
2022/08/13 10:03:50;;;;;;;;;3.00;3.00;;;;;29.77;24.66;101061.16;5040032;28;46965;-85
2022/08/13 10:06:18;;;;;;;;;3.50;3.50;;;;;29.83;24.77;101049.75;5058011;28;45808;-85
2022/08/13 10:08:49;;;;;;;;;3.00;3.00;;;;;29.90;24.79;101057.00;5040481;28;45358;-85
2022/08/13 10:11:15;;;;;;;;;3.25;2.25;;;;;29.96;24.13;101051.97;5040286;28;45571;-85
2022/08/13 10:13:41;;;;;;;;;5.00;3.50;;;;;30.00;24.79;101046.13;5039940;28;46208;-85
2022/08/13 10:16:06;;;;;;;;;3.00;3.00;;;;;30.10;24.44;101054.84;5057854;28;45295;-84
2022/08/13 10:18:34;;;;;;;;;3.50;2.25;;;;;30.18;24.06;101054.06;5039864;28;45373;-84
2022/08/13 10:20:59;;;;;;;;;2.50;2.50;;;;;30.27;24.19;101054.88;5057953;28;45516;-85
2022/08/13 10:23:24;;;;;;;;;4.50;4.50;;;;;30.34;23.93;101049.72;5056861;28;75698;-84
2022/08/13 10:25:52;;;;;;;;;4.00;4.00;;;;;30.40;24.02;101038.31;5057559;28;50904;-85
2022/08/13 10:28:23;;;;;;;;;3.00;3.00;;;;;30.45;23.37;101041.34;5073499;27;45574;-85
2022/08/13 10:30:49;;;;;;;;;4.00;4.00;;;;;30.57;23.47;101041.84;5077919;28;45525;-85
2022/08/13 10:33:16;;;;;;;;;4.50;3.50;;;;;30.67;23.52;101042.53;5077452;28;46461;-85
2022/08/13 10:35:43;;;;;;;;;6.00;4.50;;;;;30.73;22.97;101049.06;5093277;27;46005;-85
2022/08/13 10:38:16;;;;;;;;;4.00;4.00;;;;;30.78;22.71;101038.66;5078147;28;45445;-85
2022/08/13 10:40:42;;;;;;;;;2.50;2.50;;;;;30.88;22.75;101050.06;5111073;27;45581;-85
2022/08/13 10:43:07;;;;;;;;;3.50;3.25;;;;;30.96;22.92;101033.97;5110686;27;46107;-85
2022/08/13 10:45:34;;;;;;;;;3.00;3.00;;;;;31.05;22.42;101037.44;5077852;28;45381;-85
2022/08/13 10:48:01;;;;;;;;;4.00;4.00;;;;;31.12;22.40;101041.13;5093122;27;45461;-85
2022/08/13 10:50:29;;;;;;;;;4.25;3.00;;;;;31.19;22.17;101038.59;5110485;27;45495;-85
2022/08/13 10:52:58;;;;;;;;;5.00;3.25;;;;;31.26;21.93;101028.84;5076259;28;45712;-85
2022/08/13 10:55:27;;;;;;;;;4.00;3.00;;;;;31.34;21.59;101031.50;5076255;28;45775;-85
2022/08/13 10:57:53;;;;;;;;;3.00;3.00;;;;;31.43;21.39;101029.63;5077740;28;45422;-85
2022/08/13 11:00:19;;;;;;;;;3.50;3.25;;;;;31.51;21.25;101028.78;5076964;28;61464;-85
2022/08/13 11:02:51;;;;;;;;;4.25;3.00;;;;;31.57;21.49;101022.69;5077065;28;46213;-85
2022/08/13 11:05:25;;;;;;;;;3.25;3.00;;;;;31.63;21.22;101020.13;5075961;27;45822;-85
2022/08/13 11:07:51;;;;;;;;;3.25;3.25;;;;;31.73;21.80;101022.59;5077507;28;45366;-85
2022/08/13 11:10:18;;;;;;;;;3.25;2.50;;;;;31.86;21.69;101019.34;5093156;27;45359;-86
2022/08/13 11:12:50;;;;;;;;;6.00;4.00;;;;;32.03;20.93;101030.88;5076165;28;47096;-86
2022/08/13 11:15:19;;;;;;;;;4.00;4.00;;;;;32.15;20.13;101026.75;5077521;27;45793;-86
2022/08/13 11:17:49;;;;;;;;;3.75;3.75;;;;;32.25;20.28;101023.81;5075974;28;45411;-85
2022/08/13 11:20:17;;;;;;;;;2.00;2.00;;;;;32.36;20.01;101025.25;5076026;28;45302;-85
2022/08/13 11:22:43;;;;;;;;;2.00;2.00;;;;;32.50;20.11;101024.44;5075856;28;48502;-85
2022/08/13 11:25:08;;;;;;;;;3.00;3.00;;;;;32.68;19.94;101020.63;5077229;28;45457;-85
2022/08/13 11:27:37;;;;;;;;;4.00;3.00;;;;;32.87;19.78;101025.47;5077093;27;45328;-86
2022/08/13 11:30:02;;;;;;;;;3.00;3.00;;;;;33.02;19.87;101019.25;5075563;28;45524;-86
2022/08/13 11:32:28;;;;;;;;;2.75;2.00;;;;;33.20;18.52;101017.06;5062840;28;45569;-86
2022/08/13 11:34:57;;;;;;;;;5.00;3.00;;;;;33.40;19.64;101009.25;5056767;28;45505;-85
2022/08/13 11:37:22;;;;;;;;;3.25;2.50;;;;;33.64;18.79;101004.56;5039401;28;45391;-86
2022/08/13 11:39:48;;;;;;;;;2.00;2.00;;;;;33.83;17.77;101009.34;5055410;28;45485;-86
2022/08/13 11:42:13;;;;;;;;;2.25;2.00;;;;;34.08;17.47;101004.44;5038617;28;46151;-86
2022/08/13 11:44:38;;;;;;;;;1.00;1.00;;;;;34.46;17.99;101003.34;5055221;28;69952;-86
2022/08/13 11:47:04;;;;;;;;;3.25;2.50;;;;;35.63;17.87;100999.88;5056692;28;45223;-86
2022/08/13 11:49:29;;;;;;;;;2.75;1.50;;;;;39.09;15.68;101010.50;5056433;28;45361;-86